sensor_id;sensor_type;location;lat;lon;timestamp;pressure;altitude;pressure_sealevel;temperature;humidity
77019;BME280;66044;53.142;17.962;2023-06-24T00:02:24;101352.23;;;18.45;59.86
77019;BME280;66044;53.142;17.962;2023-06-24T00:04:50;101353.08;;;18.44;59.95
77019;BME280;66044;53.142;17.962;2023-06-24T00:07:20;101350.98;;;18.44;60.14
77019;BME280;66044;53.142;17.962;2023-06-24T00:09:49;101350.12;;;18.44;60.23
77019;BME280;66044;53.142;17.962;2023-06-24T00:12:16;101347.67;;;18.42;60.28
77019;BME280;66044;53.142;17.962;2023-06-24T00:14:48;101352.58;;;18.42;60.24
77019;BME280;66044;53.142;17.962;2023-06-24T00:17:14;101350.55;;;18.41;60.30
77019;BME280;66044;53.142;17.962;2023-06-24T00:19:42;101351.41;;;18.41;60.37
77019;BME280;66044;53.142;17.962;2023-06-24T00:22:10;101355.07;;;18.41;60.47
77019;BME280;66044;53.142;17.962;2023-06-24T00:24:37;101355.83;;;18.41;60.48
77019;BME280;66044;53.142;17.962;2023-06-24T00:27:03;101358.01;;;18.40;60.54
77019;BME280;66044;53.142;17.962;2023-06-24T00:29:30;101356.30;;;18.41;60.75
77019;BME280;66044;53.142;17.962;2023-06-24T00:31:56;101355.91;;;18.41;60.77
77019;BME280;66044;53.142;17.962;2023-06-24T00:34:23;101358.48;;;18.41;60.87
77019;BME280;66044;53.142;17.962;2023-06-24T00:36:50;101360.03;;;18.41;60.84
77019;BME280;66044;53.142;17.962;2023-06-24T00:39:16;101360.50;;;18.41;60.80
77019;BME280;66044;53.142;17.962;2023-06-24T00:41:43;101360.34;;;18.41;60.96
77019;BME280;66044;53.142;17.962;2023-06-24T00:44:09;101357.31;;;18.42;60.96
77019;BME280;66044;53.142;17.962;2023-06-24T00:46:36;101359.49;;;18.42;61.02
77019;BME280;66044;53.142;17.962;2023-06-24T00:49:02;101361.06;;;18.43;61.12
77019;BME280;66044;53.142;17.962;2023-06-24T00:51:29;101368.05;;;18.43;61.22
77019;BME280;66044;53.142;17.962;2023-06-24T00:53:58;101362.72;;;18.44;61.26
77019;BME280;66044;53.142;17.962;2023-06-24T00:56:35;101360.45;;;18.43;61.20
77019;BME280;66044;53.142;17.962;2023-06-24T00:59:06;101359.52;;;18.43;61.22
77019;BME280;66044;53.142;17.962;2023-06-24T01:01:34;101364.27;;;18.44;61.36
77019;BME280;66044;53.142;17.962;2023-06-24T01:04:03;101368.85;;;18.44;61.40
77019;BME280;66044;53.142;17.962;2023-06-24T01:06:30;101366.28;;;18.44;61.42
77019;BME280;66044;53.142;17.962;2023-06-24T01:08:58;101366.89;;;18.42;61.25
77019;BME280;66044;53.142;17.962;2023-06-24T01:11:27;101366.40;;;18.41;61.24
77019;BME280;66044;53.142;17.962;2023-06-24T01:13:53;101368.02;;;18.40;61.26
77019;BME280;66044;53.142;17.962;2023-06-24T01:16:42;101369.00;;;18.38;61.22
77019;BME280;66044;53.142;17.962;2023-06-24T01:24:49;101374.23;;;18.36;61.35
77019;BME280;66044;53.142;17.962;2023-06-24T01:27:28;101379.89;;;18.35;61.27
77019;BME280;66044;53.142;17.962;2023-06-24T01:32:54;101387.98;;;18.31;61.50
77019;BME280;66044;53.142;17.962;2023-06-24T01:35:31;101385.30;;;18.29;61.56
77019;BME280;66044;53.142;17.962;2023-06-24T01:38:01;101389.40;;;18.28;61.66
77019;BME280;66044;53.142;17.962;2023-06-24T01:40:43;101388.05;;;18.26;61.68
77019;BME280;66044;53.142;17.962;2023-06-24T01:43:11;101389.83;;;18.26;61.79
77019;BME280;66044;53.142;17.962;2023-06-24T01:45:45;101389.04;;;18.25;61.75
77019;BME280;66044;53.142;17.962;2023-06-24T01:48:22;101393.84;;;18.24;61.79
77019;BME280;66044;53.142;17.962;2023-06-24T01:51:03;101391.48;;;18.23;61.83
77019;BME280;66044;53.142;17.962;2023-06-24T01:53:36;101392.95;;;18.23;61.97
77019;BME280;66044;53.142;17.962;2023-06-24T01:56:07;101392.54;;;18.22;62.05
77019;BME280;66044;53.142;17.962;2023-06-24T01:58:35;101391.05;;;18.21;62.04
77019;BME280;66044;53.142;17.962;2023-06-24T02:01:03;101390.89;;;18.21;61.99
77019;BME280;66044;53.142;17.962;2023-06-24T02:03:32;101389.55;;;18.21;62.04
77019;BME280;66044;53.142;17.962;2023-06-24T02:06:00;101386.13;;;18.19;62.09
77019;BME280;66044;53.142;17.962;2023-06-24T02:08:33;101387.36;;;18.19;62.13
77019;BME280;66044;53.142;17.962;2023-06-24T02:11:02;101388.68;;;18.18;62.24
77019;BME280;66044;53.142;17.962;2023-06-24T02:13:31;101388.88;;;18.16;62.32
77019;BME280;66044;53.142;17.962;2023-06-24T02:16:03;101390.63;;;18.15;62.46
77019;BME280;66044;53.142;17.962;2023-06-24T02:18:34;101388.44;;;18.14;62.64
77019;BME280;66044;53.142;17.962;2023-06-24T02:21:03;101388.81;;;18.14;62.78
77019;BME280;66044;53.142;17.962;2023-06-24T02:23:31;101390.65;;;18.13;62.90
77019;BME280;66044;53.142;17.962;2023-06-24T02:25:59;101390.31;;;18.10;63.10
77019;BME280;66044;53.142;17.962;2023-06-24T02:28:27;101392.84;;;18.09;63.21
77019;BME280;66044;53.142;17.962;2023-06-24T02:30:54;101395.76;;;18.07;63.27
77019;BME280;66044;53.142;17.962;2023-06-24T02:33:20;101397.13;;;18.06;63.31
77019;BME280;66044;53.142;17.962;2023-06-24T02:35:47;101395.63;;;18.05;63.46
77019;BME280;66044;53.142;17.962;2023-06-24T02:38:13;101401.12;;;18.03;63.50
77019;BME280;66044;53.142;17.962;2023-06-24T02:40:43;101396.33;;;18.01;63.55
77019;BME280;66044;53.142;17.962;2023-06-24T02:43:10;101394.11;;;17.99;63.61
77019;BME280;66044;53.142;17.962;2023-06-24T02:45:37;101388.70;;;17.97;63.50
77019;BME280;66044;53.142;17.962;2023-06-24T02:48:06;101394.30;;;17.96;63.67
77019;BME280;66044;53.142;17.962;2023-06-24T02:50:35;101391.27;;;17.93;63.71
77019;BME280;66044;53.142;17.962;2023-06-24T02:53:04;101395.51;;;17.91;63.63
77019;BME280;66044;53.142;17.962;2023-06-24T02:55:32;101395.31;;;17.90;63.73
77019;BME280;66044;53.142;17.962;2023-06-24T02:58:00;101392.36;;;17.89;63.73
77019;BME280;66044;53.142;17.962;2023-06-24T03:00:28;101394.36;;;17.88;63.78
77019;BME280;66044;53.142;17.962;2023-06-24T03:02:55;101395.76;;;17.87;63.85
77019;BME280;66044;53.142;17.962;2023-06-24T03:05:22;101396.67;;;17.87;63.68
77019;BME280;66044;53.142;17.962;2023-06-24T03:07:52;101398.08;;;17.88;63.77
77019;BME280;66044;53.142;17.962;2023-06-24T03:10:19;101401.26;;;17.87;63.81
77019;BME280;66044;53.142;17.962;2023-06-24T03:12:45;101406.44;;;17.87;63.82
77019;BME280;66044;53.142;17.962;2023-06-24T03:15:13;101411.54;;;17.85;63.83
77019;BME280;66044;53.142;17.962;2023-06-24T03:17:40;101414.30;;;17.84;63.77
77019;BME280;66044;53.142;17.962;2023-06-24T03:20:07;101417.96;;;17.85;63.67
77019;BME280;66044;53.142;17.962;2023-06-24T03:22:34;101422.55;;;17.84;63.65
77019;BME280;66044;53.142;17.962;2023-06-24T03:25:01;101421.94;;;17.85;63.84
77019;BME280;66044;53.142;17.962;2023-06-24T03:27:27;101418.90;;;17.84;63.90
77019;BME280;66044;53.142;17.962;2023-06-24T03:29:54;101414.40;;;17.85;63.87
77019;BME280;66044;53.142;17.962;2023-06-24T03:32:20;101413.98;;;17.84;63.85
77019;BME280;66044;53.142;17.962;2023-06-24T03:34:47;101414.67;;;17.83;63.90
77019;BME280;66044;53.142;17.962;2023-06-24T03:37:13;101418.86;;;17.83;63.85
77019;BME280;66044;53.142;17.962;2023-06-24T03:39:40;101424.67;;;17.82;63.91
77019;BME280;66044;53.142;17.962;2023-06-24T03:42:07;101427.53;;;17.81;63.99
77019;BME280;66044;53.142;17.962;2023-06-24T03:44:33;101430.48;;;17.81;64.06
77019;BME280;66044;53.142;17.962;2023-06-24T03:46:59;101434.68;;;17.81;64.27
77019;BME280;66044;53.142;17.962;2023-06-24T03:49:26;101436.48;;;17.83;64.42
77019;BME280;66044;53.142;17.962;2023-06-24T03:51:52;101443.61;;;17.85;64.40
77019;BME280;66044;53.142;17.962;2023-06-24T03:54:19;101449.29;;;17.86;64.54
77019;BME280;66044;53.142;17.962;2023-06-24T03:56:45;101454.66;;;17.86;64.68
77019;BME280;66044;53.142;17.962;2023-06-24T03:59:12;101462.13;;;17.86;64.69
77019;BME280;66044;53.142;17.962;2023-06-24T04:01:39;101467.66;;;17.88;64.89
77019;BME280;66044;53.142;17.962;2023-06-24T04:04:05;101473.92;;;17.89;64.90
77019;BME280;66044;53.142;17.962;2023-06-24T04:06:32;101479.08;;;17.91;64.85
77019;BME280;66044;53.142;17.962;2023-06-24T04:08:58;101490.20;;;17.92;64.98
77019;BME280;66044;53.142;17.962;2023-06-24T04:11:25;101495.45;;;17.93;64.97
77019;BME280;66044;53.142;17.962;2023-06-24T04:13:51;101493.25;;;17.93;65.04
77019;BME280;66044;53.142;17.962;2023-06-24T04:16:18;101493.08;;;17.92;65.03
77019;BME280;66044;53.142;17.962;2023-06-24T04:18:44;101495.60;;;17.90;65.19
77019;BME280;66044;53.142;17.962;2023-06-24T04:21:11;101492.95;;;17.89;65.09
77019;BME280;66044;53.142;17.962;2023-06-24T04:23:37;101489.96;;;17.92;65.13
77019;BME280;66044;53.142;17.962;2023-06-24T04:26:04;101493.45;;;17.95;65.25
77019;BME280;66044;53.142;17.962;2023-06-24T04:28:30;101490.90;;;18.03;65.21
77019;BME280;66044;53.142;17.962;2023-06-24T04:30:57;101490.21;;;18.14;65.06
77019;BME280;66044;53.142;17.962;2023-06-24T04:33:24;101491.34;;;18.27;65.07
77019;BME280;66044;53.142;17.962;2023-06-24T04:35:50;101495.52;;;18.41;64.85
77019;BME280;66044;53.142;17.962;2023-06-24T04:38:17;101493.14;;;18.54;64.64
77019;BME280;66044;53.142;17.962;2023-06-24T04:40:45;101485.56;;;18.72;64.48
77019;BME280;66044;53.142;17.962;2023-06-24T04:43:11;101480.36;;;18.97;64.11
77019;BME280;66044;53.142;17.962;2023-06-24T04:45:38;101475.52;;;19.29;63.57
77019;BME280;66044;53.142;17.962;2023-06-24T04:48:05;101475.30;;;19.75;62.88
77019;BME280;66044;53.142;17.962;2023-06-24T04:50:31;101477.60;;;20.35;61.99
77019;BME280;66044;53.142;17.962;2023-06-24T04:52:58;101485.44;;;20.73;61.21
77019;BME280;66044;53.142;17.962;2023-06-24T04:55:24;101488.67;;;21.11;60.19
77019;BME280;66044;53.142;17.962;2023-06-24T04:57:50;101491.50;;;21.37;59.42
77019;BME280;66044;53.142;17.962;2023-06-24T05:00:17;101488.61;;;21.72;58.68
77019;BME280;66044;53.142;17.962;2023-06-24T05:02:44;101485.86;;;22.05;57.89
77019;BME280;66044;53.142;17.962;2023-06-24T05:05:11;101490.55;;;22.23;57.20
77019;BME280;66044;53.142;17.962;2023-06-24T05:07:38;101492.42;;;22.42;56.73
77019;BME280;66044;53.142;17.962;2023-06-24T05:10:06;101492.70;;;22.56;56.19
77019;BME280;66044;53.142;17.962;2023-06-24T05:12:33;101494.48;;;22.49;55.61
77019;BME280;66044;53.142;17.962;2023-06-24T05:14:59;101502.27;;;22.41;55.43
77019;BME280;66044;53.142;17.962;2023-06-24T05:17:26;101496.02;;;22.38;55.22
77019;BME280;66044;53.142;17.962;2023-06-24T05:19:52;101489.23;;;22.45;55.09
77019;BME280;66044;53.142;17.962;2023-06-24T05:22:19;101491.64;;;22.65;54.87
77019;BME280;66044;53.142;17.962;2023-06-24T05:24:45;101495.79;;;22.98;54.29
77019;BME280;66044;53.142;17.962;2023-06-24T05:27:12;101501.28;;;23.51;53.66
77019;BME280;66044;53.142;17.962;2023-06-24T05:29:38;101495.77;;;24.01;52.53
77019;BME280;66044;53.142;17.962;2023-06-24T05:32:06;101492.88;;;24.61;51.67
77019;BME280;66044;53.142;17.962;2023-06-24T05:34:32;101492.67;;;25.17;50.55
77019;BME280;66044;53.142;17.962;2023-06-24T05:37:00;101490.94;;;25.62;49.55
77019;BME280;66044;53.142;17.962;2023-06-24T05:39:26;101495.14;;;26.04;48.52
77019;BME280;66044;53.142;17.962;2023-06-24T05:41:53;101496.28;;;27.25;46.91
77019;BME280;66044;53.142;17.962;2023-06-24T05:44:19;101502.20;;;28.04;45.60
77019;BME280;66044;53.142;17.962;2023-06-24T05:46:46;101499.64;;;28.66;44.42
77019;BME280;66044;53.142;17.962;2023-06-24T05:49:12;101505.14;;;29.59;42.79
77019;BME280;66044;53.142;17.962;2023-06-24T05:51:39;101504.77;;;30.16;41.75
77019;BME280;66044;53.142;17.962;2023-06-24T05:54:05;101511.38;;;30.26;41.00
77019;BME280;66044;53.142;17.962;2023-06-24T05:56:33;101510.09;;;30.19;40.59
77019;BME280;66044;53.142;17.962;2023-06-24T05:59:00;101505.57;;;29.73;40.39
77019;BME280;66044;53.142;17.962;2023-06-24T06:01:26;101505.09;;;29.20;40.65
77019;BME280;66044;53.142;17.962;2023-06-24T06:03:53;101506.85;;;28.72;40.82
77019;BME280;66044;53.142;17.962;2023-06-24T06:06:19;101510.95;;;28.37;40.96
77019;BME280;66044;53.142;17.962;2023-06-24T06:08:47;101509.46;;;28.17;41.53
77019;BME280;66044;53.142;17.962;2023-06-24T06:11:13;101508.39;;;27.98;41.33
77019;BME280;66044;53.142;17.962;2023-06-24T06:13:40;101508.30;;;27.74;41.60
77019;BME280;66044;53.142;17.962;2023-06-24T06:16:06;101509.83;;;27.56;41.63
77019;BME280;66044;53.142;17.962;2023-06-24T06:18:33;101504.50;;;27.53;41.89
77019;BME280;66044;53.142;17.962;2023-06-24T06:21:00;101503.71;;;28.15;41.21
77019;BME280;66044;53.142;17.962;2023-06-24T06:23:26;101499.52;;;28.50;40.84
77019;BME280;66044;53.142;17.962;2023-06-24T06:25:53;101498.83;;;28.46;40.91
77019;BME280;66044;53.142;17.962;2023-06-24T06:28:20;101499.33;;;28.83;40.40
77019;BME280;66044;53.142;17.962;2023-06-24T06:30:46;101498.02;;;29.91;39.42
77019;BME280;66044;53.142;17.962;2023-06-24T06:33:12;101504.36;;;30.17;38.62
77019;BME280;66044;53.142;17.962;2023-06-24T06:35:39;101508.88;;;30.14;38.18
77019;BME280;66044;53.142;17.962;2023-06-24T06:38:05;101503.66;;;30.16;37.65
77019;BME280;66044;53.142;17.962;2023-06-24T06:40:32;101500.94;;;30.22;37.29
77019;BME280;66044;53.142;17.962;2023-06-24T06:42:58;101504.54;;;31.46;36.30
77019;BME280;66044;53.142;17.962;2023-06-24T06:45:25;101502.30;;;33.69;34.30
77019;BME280;66044;53.142;17.962;2023-06-24T06:47:51;101497.59;;;34.62;33.54
77019;BME280;66044;53.142;17.962;2023-06-24T06:50:18;101500.63;;;35.92;31.97
77019;BME280;66044;53.142;17.962;2023-06-24T06:52:44;101505.82;;;36.06;30.90
77019;BME280;66044;53.142;17.962;2023-06-24T06:55:11;101505.44;;;35.38;30.58
77019;BME280;66044;53.142;17.962;2023-06-24T06:57:37;101502.50;;;34.80;30.40
77019;BME280;66044;53.142;17.962;2023-06-24T07:00:04;101498.02;;;34.09;30.69
77019;BME280;66044;53.142;17.962;2023-06-24T07:02:33;101498.10;;;33.48;31.01
77019;BME280;66044;53.142;17.962;2023-06-24T07:04:59;101503.91;;;33.08;31.46
77019;BME280;66044;53.142;17.962;2023-06-24T07:07:27;101507.06;;;33.87;31.05
77019;BME280;66044;53.142;17.962;2023-06-24T07:09:53;101503.87;;;34.37;30.65
77019;BME280;66044;53.142;17.962;2023-06-24T07:12:20;101502.13;;;33.99;30.69
77019;BME280;66044;53.142;17.962;2023-06-24T07:14:47;101500.16;;;33.58;30.92
77019;BME280;66044;53.142;17.962;2023-06-24T07:17:13;101502.62;;;33.30;31.01
77019;BME280;66044;53.142;17.962;2023-06-24T07:19:40;101508.32;;;33.12;30.99
77019;BME280;66044;53.142;17.962;2023-06-24T07:22:07;101510.41;;;33.07;30.99
77019;BME280;66044;53.142;17.962;2023-06-24T07:24:33;101504.77;;;33.36;30.79
77019;BME280;66044;53.142;17.962;2023-06-24T07:27:00;101506.39;;;34.09;30.66
77019;BME280;66044;53.142;17.962;2023-06-24T07:29:26;101507.98;;;35.57;29.64
77019;BME280;66044;53.142;17.962;2023-06-24T07:31:53;101514.67;;;37.28;28.04
77019;BME280;66044;53.142;17.962;2023-06-24T07:34:19;101518.95;;;37.63;26.69
77019;BME280;66044;53.142;17.962;2023-06-24T07:36:46;101513.10;;;37.19;26.76
77019;BME280;66044;53.142;17.962;2023-06-24T07:39:12;101514.07;;;36.58;26.50
77019;BME280;66044;53.142;17.962;2023-06-24T07:41:38;101512.66;;;35.91;27.02
77019;BME280;66044;53.142;17.962;2023-06-24T07:44:05;101509.42;;;35.28;27.70
77019;BME280;66044;53.142;17.962;2023-06-24T07:46:32;101513.29;;;34.63;28.01
77019;BME280;66044;53.142;17.962;2023-06-24T07:48:58;101510.54;;;33.99;28.47
77019;BME280;66044;53.142;17.962;2023-06-24T07:51:25;101510.91;;;33.47;28.87
77019;BME280;66044;53.142;17.962;2023-06-24T07:53:52;101512.14;;;32.96;29.49
77019;BME280;66044;53.142;17.962;2023-06-24T07:56:18;101516.06;;;32.53;30.03
77019;BME280;66044;53.142;17.962;2023-06-24T07:58:45;101512.05;;;32.12;30.53
77019;BME280;66044;53.142;17.962;2023-06-24T08:01:11;101516.37;;;31.63;30.72
77019;BME280;66044;53.142;17.962;2023-06-24T08:03:38;101511.06;;;31.30;31.16
77019;BME280;66044;53.142;17.962;2023-06-24T08:06:07;101516.56;;;31.07;31.71
77019;BME280;66044;53.142;17.962;2023-06-24T08:08:33;101517.05;;;30.90;32.28
77019;BME280;66044;53.142;17.962;2023-06-24T08:11:00;101521.80;;;30.74;32.72
77019;BME280;66044;53.142;17.962;2023-06-24T08:13:26;101517.92;;;30.59;32.90
77019;BME280;66044;53.142;17.962;2023-06-24T08:15:53;101517.41;;;30.55;33.05
77019;BME280;66044;53.142;17.962;2023-06-24T08:18:19;101517.23;;;30.59;32.88
77019;BME280;66044;53.142;17.962;2023-06-24T08:20:46;101515.75;;;30.60;33.07
77019;BME280;66044;53.142;17.962;2023-06-24T08:23:12;101522.51;;;30.54;33.18
77019;BME280;66044;53.142;17.962;2023-06-24T08:25:39;101524.02;;;30.54;33.34
77019;BME280;66044;53.142;17.962;2023-06-24T08:28:05;101525.29;;;30.57;33.38
77019;BME280;66044;53.142;17.962;2023-06-24T08:30:31;101531.79;;;30.59;33.32
77019;BME280;66044;53.142;17.962;2023-06-24T08:32:59;101537.45;;;30.63;33.39
77019;BME280;66044;53.142;17.962;2023-06-24T08:35:25;101536.16;;;30.54;33.54
77019;BME280;66044;53.142;17.962;2023-06-24T08:37:52;101537.39;;;30.40;33.81
77019;BME280;66044;53.142;17.962;2023-06-24T08:40:19;101537.60;;;30.31;34.06
77019;BME280;66044;53.142;17.962;2023-06-24T08:42:45;101535.05;;;30.18;34.06
77019;BME280;66044;53.142;17.962;2023-06-24T08:45:12;101535.59;;;29.87;34.12
77019;BME280;66044;53.142;17.962;2023-06-24T08:47:39;101532.37;;;29.49;34.38
77019;BME280;66044;53.142;17.962;2023-06-24T08:50:13;101527.30;;;29.17;35.14
77019;BME280;66044;53.142;17.962;2023-06-24T08:52:45;101524.75;;;28.89;35.74
77019;BME280;66044;53.142;17.962;2023-06-24T08:55:16;101532.90;;;28.66;36.18
77019;BME280;66044;53.142;17.962;2023-06-24T08:57:43;101535.23;;;28.46;36.63
77019;BME280;66044;53.142;17.962;2023-06-24T09:00:10;101527.23;;;28.29;37.09
77019;BME280;66044;53.142;17.962;2023-06-24T09:02:37;101527.40;;;28.16;37.71
77019;BME280;66044;53.142;17.962;2023-06-24T09:05:05;101527.62;;;28.12;38.09
77019;BME280;66044;53.142;17.962;2023-06-24T09:07:32;101526.61;;;28.11;38.14
77019;BME280;66044;53.142;17.962;2023-06-24T09:09:59;101528.83;;;27.95;37.87
77019;BME280;66044;53.142;17.962;2023-06-24T09:12:32;101526.38;;;27.82;38.01
77019;BME280;66044;53.142;17.962;2023-06-24T09:14:59;101523.65;;;27.85;38.55
77019;BME280;66044;53.142;17.962;2023-06-24T09:17:25;101526.66;;;27.77;38.32
77019;BME280;66044;53.142;17.962;2023-06-24T09:19:52;101520.89;;;27.68;38.36
77019;BME280;66044;53.142;17.962;2023-06-24T09:22:19;101521.02;;;27.68;38.25
77019;BME280;66044;53.142;17.962;2023-06-24T09:24:46;101521.59;;;27.68;38.49
77019;BME280;66044;53.142;17.962;2023-06-24T09:27:16;101519.33;;;27.59;38.31
77019;BME280;66044;53.142;17.962;2023-06-24T09:29:43;101517.55;;;27.51;38.73
77019;BME280;66044;53.142;17.962;2023-06-24T09:32:10;101522.98;;;27.51;39.14
77019;BME280;66044;53.142;17.962;2023-06-24T09:34:37;101521.05;;;27.54;39.18
77019;BME280;66044;53.142;17.962;2023-06-24T09:37:05;101517.53;;;27.66;39.35
77019;BME280;66044;53.142;17.962;2023-06-24T09:39:39;101518.65;;;27.82;39.25
77019;BME280;66044;53.142;17.962;2023-06-24T09:42:06;101519.40;;;27.89;38.81
77019;BME280;66044;53.142;17.962;2023-06-24T09:44:34;101520.33;;;27.93;38.70
77019;BME280;66044;53.142;17.962;2023-06-24T09:47:00;101514.12;;;28.00;38.55
77019;BME280;66044;53.142;17.962;2023-06-24T09:49:28;101516.00;;;28.14;38.76
77019;BME280;66044;53.142;17.962;2023-06-24T09:51:56;101514.41;;;28.19;38.34
77019;BME280;66044;53.142;17.962;2023-06-24T09:54:26;101516.80;;;28.17;38.25
77019;BME280;66044;53.142;17.962;2023-06-24T09:56:54;101514.98;;;28.01;38.00
77019;BME280;66044;53.142;17.962;2023-06-24T09:59:21;101513.34;;;28.00;37.92
77019;BME280;66044;53.142;17.962;2023-06-24T10:01:49;101506.43;;;28.02;37.92
77019;BME280;66044;53.142;17.962;2023-06-24T10:04:20;101506.08;;;27.99;37.43
77019;BME280;66044;53.142;17.962;2023-06-24T10:06:48;101504.19;;;27.96;37.93
77019;BME280;66044;53.142;17.962;2023-06-24T10:09:15;101503.01;;;28.03;38.08
77019;BME280;66044;53.142;17.962;2023-06-24T10:11:44;101506.54;;;28.12;37.81
77019;BME280;66044;53.142;17.962;2023-06-24T10:14:11;101502.03;;;28.18;37.63
77019;BME280;66044;53.142;17.962;2023-06-24T10:16:38;101503.23;;;28.24;37.88
77019;BME280;66044;53.142;17.962;2023-06-24T10:19:05;101499.03;;;28.22;37.49
77019;BME280;66044;53.142;17.962;2023-06-24T10:21:45;101497.50;;;28.19;37.24
77019;BME280;66044;53.142;17.962;2023-06-24T10:24:37;101500.33;;;28.17;37.07
77019;BME280;66044;53.142;17.962;2023-06-24T10:27:08;101493.85;;;28.11;36.93
77019;BME280;66044;53.142;17.962;2023-06-24T10:29:36;101495.04;;;28.11;37.38
77019;BME280;66044;53.142;17.962;2023-06-24T10:32:08;101494.46;;;28.04;37.01
77019;BME280;66044;53.142;17.962;2023-06-24T10:34:39;101492.84;;;27.90;36.99
77019;BME280;66044;53.142;17.962;2023-06-24T10:45:00;101490.39;;;27.83;37.35
77019;BME280;66044;53.142;17.962;2023-06-24T10:47:29;101491.56;;;27.75;37.35
77019;BME280;66044;53.142;17.962;2023-06-24T10:49:56;101488.52;;;27.69;37.52
77019;BME280;66044;53.142;17.962;2023-06-24T10:52:23;101487.30;;;27.66;37.51
77019;BME280;66044;53.142;17.962;2023-06-24T10:54:51;101491.50;;;27.62;37.34
77019;BME280;66044;53.142;17.962;2023-06-24T10:57:27;101493.35;;;27.55;37.06
77019;BME280;66044;53.142;17.962;2023-06-24T10:59:56;101487.73;;;27.46;37.21
77019;BME280;66044;53.142;17.962;2023-06-24T11:02:24;101482.52;;;27.46;37.40
77019;BME280;66044;53.142;17.962;2023-06-24T11:04:53;101478.56;;;27.43;37.30
77019;BME280;66044;53.142;17.962;2023-06-24T11:07:24;101478.70;;;27.35;37.42
77019;BME280;66044;53.142;17.962;2023-06-24T11:09:55;101478.52;;;27.31;37.44
77019;BME280;66044;53.142;17.962;2023-06-24T11:12:27;101477.95;;;27.33;37.41
77019;BME280;66044;53.142;17.962;2023-06-24T11:15:01;101475.89;;;27.37;37.33
77019;BME280;66044;53.142;17.962;2023-06-24T11:17:28;101479.14;;;27.46;37.14
77019;BME280;66044;53.142;17.962;2023-06-24T11:19:58;101476.56;;;27.50;37.16
77019;BME280;66044;53.142;17.962;2023-06-24T11:22:26;101467.92;;;27.47;36.90
77019;BME280;66044;53.142;17.962;2023-06-24T11:24:55;101470.02;;;27.35;36.99
77019;BME280;66044;53.142;17.962;2023-06-24T11:27:27;101471.02;;;27.28;37.14
77019;BME280;66044;53.142;17.962;2023-06-24T11:29:56;101470.01;;;27.23;37.22
77019;BME280;66044;53.142;17.962;2023-06-24T11:32:24;101473.59;;;27.21;37.78
77019;BME280;66044;53.142;17.962;2023-06-24T11:34:51;101470.15;;;27.23;37.80
77019;BME280;66044;53.142;17.962;2023-06-24T11:37:18;101472.61;;;27.27;37.78
77019;BME280;66044;53.142;17.962;2023-06-24T11:40:00;101469.14;;;27.31;37.62
77019;BME280;66044;53.142;17.962;2023-06-24T11:42:28;101470.80;;;27.36;37.54
77019;BME280;66044;53.142;17.962;2023-06-24T11:44:59;101473.49;;;27.49;37.51
77019;BME280;66044;53.142;17.962;2023-06-24T11:47:27;101473.39;;;27.60;37.45
77019;BME280;66044;53.142;17.962;2023-06-24T11:49:57;101472.75;;;27.73;37.38
77019;BME280;66044;53.142;17.962;2023-06-24T11:52:41;101473.63;;;27.85;37.48
77019;BME280;66044;53.142;17.962;2023-06-24T12:00:17;101470.62;;;27.97;37.00
77019;BME280;66044;53.142;17.962;2023-06-24T12:02:45;101473.95;;;28.00;36.99
77019;BME280;66044;53.142;17.962;2023-06-24T12:05:12;101470.80;;;27.99;36.95
77019;BME280;66044;53.142;17.962;2023-06-24T12:07:38;101471.79;;;28.02;36.83
77019;BME280;66044;53.142;17.962;2023-06-24T12:10:05;101469.23;;;28.07;36.81
77019;BME280;66044;53.142;17.962;2023-06-24T12:12:33;101468.74;;;28.07;36.16
77019;BME280;66044;53.142;17.962;2023-06-24T12:15:00;101464.30;;;28.13;35.77
77019;BME280;66044;53.142;17.962;2023-06-24T12:17:26;101451.54;;;28.20;35.15
77019;BME280;66044;53.142;17.962;2023-06-24T12:19:53;101444.64;;;28.21;35.06
77019;BME280;66044;53.142;17.962;2023-06-24T12:22:19;101438.05;;;28.30;35.37
77019;BME280;66044;53.142;17.962;2023-06-24T12:24:46;101435.21;;;28.40;34.99
77019;BME280;66044;53.142;17.962;2023-06-24T12:27:13;101441.86;;;28.43;35.09
77019;BME280;66044;53.142;17.962;2023-06-24T12:29:39;101442.63;;;28.41;35.27
77019;BME280;66044;53.142;17.962;2023-06-24T12:32:07;101440.59;;;28.40;35.07
77019;BME280;66044;53.142;17.962;2023-06-24T12:34:33;101437.84;;;28.46;34.79
77019;BME280;66044;53.142;17.962;2023-06-24T12:37:00;101442.95;;;28.55;34.69
77019;BME280;66044;53.142;17.962;2023-06-24T12:39:26;101444.86;;;28.60;34.25
77019;BME280;66044;53.142;17.962;2023-06-24T12:41:53;101443.86;;;28.63;33.87
77019;BME280;66044;53.142;17.962;2023-06-24T12:44:19;101442.48;;;28.61;33.73
77019;BME280;66044;53.142;17.962;2023-06-24T12:46:45;101445.60;;;28.59;33.81
77019;BME280;66044;53.142;17.962;2023-06-24T12:49:12;101443.09;;;28.58;33.52
77019;BME280;66044;53.142;17.962;2023-06-24T12:51:38;101444.92;;;28.58;33.76
77019;BME280;66044;53.142;17.962;2023-06-24T12:54:05;101445.16;;;28.57;33.59
77019;BME280;66044;53.142;17.962;2023-06-24T12:56:31;101447.27;;;28.58;33.98
77019;BME280;66044;53.142;17.962;2023-06-24T12:58:58;101448.98;;;28.60;34.04
77019;BME280;66044;53.142;17.962;2023-06-24T13:01:24;101444.54;;;28.61;34.01
77019;BME280;66044;53.142;17.962;2023-06-24T13:03:50;101448.11;;;28.57;33.87
77019;BME280;66044;53.142;17.962;2023-06-24T13:06:17;101443.56;;;28.58;33.93